Latest  Newer  Older  Last 2 hours animation  Current image  Latest image  Summary per 24h (testing)  Summary per 7d (testing) 
Cloud coverage sat images  Infrared sat images 
Real-time lightning map

All time is UTC (add 2 hours in wintertime, 3 hours in DST for Latvia local time)

2018/05/24 07:50 EVRA 240750Z 34009KT CAVOK 17/13 Q1026 NOSIG
2018/05/24 07:50 EVLA 240750Z AUTO 34005KT 300V010 9999 NCD 19/13 Q1028
2018/05/24 07:50 EVVA 240750Z AUTO 36009KT CAVOK 16/12 Q1028
2018/05/24 07:50 EYKA 240750Z 36010KT 330V040 CAVOK 20/09 Q1025
2018/05/24 07:50 EYPA 240750Z VRB04KT CAVOK 15/11 Q1028
2018/05/24 07:50 EYSA 240750Z 33011KT CAVOK 20/10 Q1027 BLU NOSIG
2018/05/24 07:50 EYVI 240750Z 35010KT CAVOK 20/10 Q1024 NOSIG
2018/05/24 06:50 EEKA 240650Z 35011KT CAVOK 14/06 Q1029
2018/05/24 06:50 EEKE 240650Z 01011KT CAVOK 18/08 Q1028
2018/05/24 06:50 EEPU 240650Z 35007KT 300V030 CAVOK 18/10 Q1026
2018/05/24 07:50 EETN 240750Z 05009KT 010V080 CAVOK 15/05 Q1028 NOSIG
2018/05/24 06:50 EETU 240650Z 30006KT 250V340 CAVOK 18/10 Q1025
   RIGA AIRPORT     EVRA               56 55N  023 58E   10   X     T          6 LV
   LIEPAJA INTL     EVLA        26406  56 31N  021 06E    4   X                8 LV
   VENTPILS         EVVA               57 21N  021 33E    6   X                8 LV
   KAUNAS           EYKA               54 54N  023 55E   77   X     T          6 LT
   PALANGA INTL     EYPA               55 55N  021 03E   10   X                6 LT
   SIAULIAI INTL    EYSA               55 54N  023 24E  135   X     T          6 LT
   VILNIUS INTL     EYVI        26730  54 38N  025 17E  197   X     T          6 LT
   KARDLA           EEKA        26116  58 59N  022 50E    4   X                8 EE
   KURESSAARE       EEKE               58 14N  022 31E    4   X                8 EE
   PARNU            EEPU               58 25N  024 28E   14   X                8 EE
   TALLINN          EETN        26038  59 24N  024 49E   40   X     T          8 EE
   TARTU            EETU               58 19N  026 41E   67   X                8 EE

rain/snow radar image from www.meteo.lv and METAR data from weather.noaa.gov